Copenhagen, Denmark

12:24 PM CEST on October 22, 2014 (GMT +0200)
Kastrup | Change Station
CLOSE
Current Station
Personal Weather Station
Location: Kastrup,
Elevation: 13 ft
Nearby Weather Stations

Elev 13 ft 55.64 °N, 12.60 °E | Updated 7 seconds ago

Mostly Cloudy
Mostly Cloudy
59.7 °F
Feels Like 59.7 °F
N
1.6
Wind Variable Wind from SE
Gusts 6.9 mph

Today
High -- | Low -- °F
--% Chance of Precip.
Yesterday
High -- | Low -- °F
Precip. -- in
7:53 AM 5:52 PM
Waning Crescent, 2% visible
Pressure 29.68 in
Visibility 6.2 miles
Clouds Scattered Clouds 1400 ft
Scattered Clouds 3500 ft
Mostly Cloudy 5900 ft
Dew Point 53 °F
Humidity 79%
Rainfall 0.11 in
Snow Depth Not available.
UV 1 out of 12
Pollen Not available.
Air Quality Not available.
Flu Activity Not available.
METAR EKCH 221020Z 08009KT 9999 SCT014 SCT035 BKN059 14/11 Q1005 NOSIG

More Conditions Fewer Conditions

Pressure 29.68 in
Visibility 6.2 miles
Clouds Scattered Clouds 1400 ft
Scattered Clouds 3500 ft
Mostly Cloudy 5900 ft
Dew Point 53 °F
Humidity 79%
Rainfall 0.11 in
Snow Depth Not available.
UV 1 out of 12
Pollen Not available.
Air Quality Not available.
Flu Activity Not available.
METAR EKCH 221020Z 08009KT 9999 SCT014 SCT035 BKN059 14/11 Q1005 NOSIG

More Conditions Fewer Conditions

10-Day Weather Forecast

Almanac

Astronomy

Oct. 22, 2014 Rise Set
Actual Time 7:53 AM CEST 5:52 PM CEST
Civil Twilight 7:15 AM CEST 6:30 PM CEST
Nautical Twilight 6:33 AM CEST 7:13 PM CEST
Astronomical Twilight 5:50 AM CEST 7:55 PM CEST
Moon 6:03 AM CEST 5:21 PM CEST
Length of Visible Light 11h 14m
Length of Day
9h 59m
Tomorrow will be 4m 25s shorter.
Waning Crescent, 2% of the Moon is Illuminated
Today
Waning Crescent
Oct 23
New
Oct 30
First Quarter
Nov 6
Full
Nov 14
Last Quarter

Yesterday's Extremes

Country Highs Country Lows

Community

WunderPhotos

Upload Photos

1,763,902 photos uploaded!

Nearby

Snow Depth

Not available.

Earthquake Activity

City Distance Mag. Time & Date
No recent earthquake activity has been reported nearby.
Minimum magnitude displayed is 2.5.

Coastal Water Temperatures

Place Temperature
No Stations Reporting

Nearby Weather Stations